Terminal Aerodrome Forecast
Issued by NWS Buffalo, NY

Home | Current Version | Previous Version | Text Only | Print | Product List | Glossary On
Versions: 1 2 3 4 5 6 7 8 9 10 11 12 13 14 15 16 17 18 19 20 21 22 23 24
000
FTUS41 KBUF 310500
TAFART
TAF
KART 310520Z 3106/0106 31003KT P6SM SKC
     FM310700 VRB03KT P6SM SKC
     FM311600 28004KT P6SM FEW250
     FM312000 24006KT P6SM SCT250
     FM312200 22005KT P6SM BKN070
     FM010000 19004KT P6SM BKN020
     FM010300 23008KT 6SM -SN BKN020
     FM010500 27010KT 6SM -SN BKN025=

USA.gov is the U.S. government's official web portal to all federal, state and local government web resources and services.